Search METAR Data

METAR Data for ENHF:

ENHF 241620Z 14008KT 9999 BKN050 04/M00 Q1012 RMK WIND 1254FT 15020KT